createdAt,value
2019-01-09T00:01:36.849Z,69.40
2019-01-09T00:04:04.950Z,69.90
2019-01-09T00:06:33.163Z,69.90
2019-01-09T00:09:02.373Z,69.80
2019-01-09T00:11:31.660Z,69.80
2019-01-09T00:13:59.859Z,69.00
2019-01-09T00:16:28.146Z,69.60
2019-01-09T00:18:57.272Z,69.70
2019-01-09T00:21:25.649Z,69.40
2019-01-09T00:23:53.962Z,68.50
2019-01-09T00:26:21.940Z,68.60
2019-01-09T00:28:50.657Z,67.70
2019-01-09T00:31:18.611Z,66.70
2019-01-09T00:33:46.566Z,66.60
2019-01-09T00:36:14.557Z,67.80
2019-01-09T00:38:43.684Z,66.00
2019-01-09T00:41:11.747Z,65.40
2019-01-09T00:43:39.748Z,66.10
2019-01-09T00:46:08.127Z,66.10
2019-01-09T00:48:36.230Z,66.00
2019-01-09T00:51:04.166Z,65.90
2019-01-09T00:53:32.524Z,66.50
2019-01-09T00:56:00.836Z,67.40
2019-01-09T00:58:29.302Z,71.60
2019-01-09T01:00:57.309Z,72.30
2019-01-09T01:04:21.703Z,73.20
2019-01-09T01:07:44.298Z,73.70
2019-01-09T01:11:15.276Z,73.70
2019-01-09T01:17:57.917Z,72.70
2019-01-09T01:21:00.781Z,73.30
2019-01-09T01:24:42.684Z,73.10
2019-01-09T01:27:59.826Z,72.80
2019-01-09T01:31:32.929Z,73.20
2019-01-09T01:35:13.507Z,73.50
2019-01-09T01:38:20.956Z,74.60
2019-01-09T01:41:19.235Z,79.50
2019-01-09T01:45:12.034Z,82.40
2019-01-09T01:49:17.720Z,82.90
2019-01-09T01:52:39.631Z,82.70
2019-01-09T01:56:04.847Z,83.30
2019-01-09T01:59:22.913Z,83.60
2019-01-09T02:02:55.462Z,83.00
2019-01-09T02:06:23.808Z,82.40
2019-01-09T02:09:29.510Z,83.30
2019-01-09T02:12:35.886Z,82.70
2019-01-09T02:16:10.530Z,81.20
2019-01-09T02:18:59.698Z,82.40
2019-01-09T02:21:56.268Z,82.70
2019-01-09T02:25:50.050Z,82.10
2019-01-09T02:29:14.822Z,82.30
2019-01-09T02:32:30.909Z,81.60
2019-01-09T02:34:58.886Z,82.40
2019-01-09T02:37:27.729Z,81.30
2019-01-09T02:39:55.699Z,82.70
2019-01-09T02:42:24.382Z,82.20
2019-01-09T02:44:52.330Z,81.60
2019-01-09T02:47:20.276Z,81.30
2019-01-09T02:49:48.244Z,81.70
2019-01-09T02:52:16.648Z,80.70
2019-01-09T02:54:45.616Z,80.00
2019-01-09T02:57:14.105Z,81.20
2019-01-09T02:59:42.048Z,81.30
2019-01-09T03:02:11.806Z,80.90
2019-01-09T03:04:39.732Z,81.50
2019-01-09T03:07:08.280Z,80.90
2019-01-09T03:09:36.801Z,81.80
2019-01-09T03:12:04.829Z,81.00
2019-01-09T03:14:34.018Z,81.60
2019-01-09T03:17:02.103Z,82.20
2019-01-09T03:19:31.449Z,82.90
2019-01-09T03:21:59.399Z,82.40
2019-01-09T03:24:27.592Z,81.90
2019-01-09T03:26:55.884Z,81.80
2019-01-09T03:29:23.908Z,83.30
2019-01-09T03:31:52.665Z,82.10
2019-01-09T03:34:20.917Z,82.40
2019-01-09T03:36:48.899Z,81.50
2019-01-09T03:39:16.869Z,82.70
2019-01-09T03:41:44.883Z,83.30
2019-01-09T03:44:14.019Z,84.30
2019-01-09T03:46:42.272Z,84.50
2019-01-09T03:49:10.436Z,83.90
2019-01-09T03:51:38.965Z,85.20
2019-01-09T03:54:07.904Z,85.80
2019-01-09T03:56:35.904Z,86.40
2019-01-09T03:59:03.834Z,87.00
2019-01-09T04:01:31.860Z,87.60
2019-01-09T04:04:00.021Z,86.40
2019-01-09T04:06:27.999Z,86.70
2019-01-09T04:08:55.979Z,85.60
2019-01-09T04:11:24.254Z,85.50
2019-01-09T04:13:52.227Z,85.60
2019-01-09T04:16:20.431Z,85.80
2019-01-09T04:18:48.376Z,85.90
2019-01-09T04:21:16.732Z,85.20
2019-01-09T04:23:44.720Z,85.60
2019-01-09T04:26:12.997Z,85.60
2019-01-09T04:28:40.941Z,86.20
2019-01-09T04:31:09.232Z,85.60
2019-01-09T04:33:37.200Z,85.70
2019-01-09T04:36:05.177Z,85.70
2019-01-09T04:38:33.210Z,85.50
2019-01-09T04:41:01.724Z,84.60
2019-01-09T04:43:30.019Z,85.30
2019-01-09T04:45:58.552Z,83.90
2019-01-09T04:48:26.493Z,83.80
2019-01-09T04:50:54.770Z,82.60
2019-01-09T04:55:50.663Z,82.90
2019-01-09T04:58:18.621Z,82.60
2019-01-09T05:00:46.600Z,83.10
2019-01-09T05:03:14.567Z,81.80
2019-01-09T05:08:11.391Z,81.20
2019-01-09T05:10:39.700Z,82.80
2019-01-09T05:13:07.675Z,81.80
2019-01-09T05:15:35.848Z,82.20
2019-01-09T05:18:04.065Z,80.80
2019-01-09T05:20:31.998Z,81.10
2019-01-09T05:22:59.939Z,81.60
2019-01-09T05:25:27.904Z,82.20
2019-01-09T05:27:56.125Z,82.60
2019-01-09T05:30:24.117Z,83.30
2019-01-09T05:32:52.089Z,83.00
2019-01-09T05:35:20.087Z,82.20
2019-01-09T05:37:49.182Z,82.80
2019-01-09T05:40:17.157Z,82.10
2019-01-09T05:42:45.081Z,82.80
2019-01-09T05:45:13.547Z,82.70
2019-01-09T05:47:41.576Z,81.70
2019-01-09T05:50:10.178Z,81.30
2019-01-09T05:52:38.783Z,81.70
2019-01-09T05:55:07.552Z,81.30
2019-01-09T05:57:35.841Z,80.60
2019-01-09T06:00:05.350Z,80.50
2019-01-09T06:02:33.326Z,81.70
2019-01-09T06:05:01.427Z,81.30
2019-01-09T06:07:29.704Z,80.20
2019-01-09T06:09:57.795Z,80.00
2019-01-09T06:12:25.875Z,80.80
2019-01-09T06:14:54.478Z,81.30
2019-01-09T06:17:22.940Z,84.00
2019-01-09T06:22:19.577Z,84.80
2019-01-09T06:24:48.133Z,86.50
2019-01-09T06:27:16.073Z,87.50
2019-01-09T06:29:45.472Z,88.10
2019-01-09T06:32:13.732Z,88.40
2019-01-09T06:34:41.721Z,88.90
2019-01-09T06:37:09.880Z,87.10
2019-01-09T06:39:38.169Z,86.80
2019-01-09T06:42:06.463Z,88.70
2019-01-09T06:44:34.440Z,89.40
2019-01-09T06:47:02.924Z,90.20
2019-01-09T06:49:30.850Z,90.50
2019-01-09T06:51:59.605Z,91.10
2019-01-09T06:54:27.613Z,91.40
2019-01-09T06:56:55.563Z,91.60
2019-01-09T06:59:23.617Z,92.00
2019-01-09T07:01:51.594Z,91.90
2019-01-09T07:04:19.902Z,91.70
2019-01-09T07:06:47.951Z,91.30
2019-01-09T07:09:15.942Z,90.60
2019-01-09T07:11:44.227Z,89.00
2019-01-09T07:14:12.832Z,89.60
2019-01-09T07:16:40.814Z,88.40
2019-01-09T07:19:09.241Z,87.30
2019-01-09T07:21:45.249Z,88.00
2019-01-09T07:24:07.659Z,88.40
2019-01-09T07:26:35.593Z,87.00
2019-01-09T07:29:03.809Z,87.60
2019-01-09T07:31:31.770Z,87.90
2019-01-09T07:33:59.733Z,88.40
2019-01-09T07:36:27.669Z,87.30
2019-01-09T07:38:55.685Z,87.20
2019-01-09T07:41:24.500Z,87.80
2019-01-09T07:43:52.948Z,86.80
2019-01-09T07:46:22.357Z,87.20
2019-01-09T07:48:50.633Z,85.80
2019-01-09T07:51:18.883Z,86.20
2019-01-09T07:53:47.201Z,86.30
2019-01-09T07:56:15.464Z,85.70
2019-01-09T07:58:43.895Z,85.90
2019-01-09T08:01:12.309Z,85.10
2019-01-09T08:03:40.607Z,84.30
2019-01-09T08:08:36.628Z,84.50
2019-01-09T08:11:04.856Z,84.20
2019-01-09T08:13:32.913Z,84.20
2019-01-09T08:16:02.371Z,83.80
2019-01-09T08:18:30.646Z,83.90
2019-01-09T08:21:05.216Z,82.30
2019-01-09T08:23:29.103Z,82.10
2019-01-09T08:25:57.136Z,82.60
2019-01-09T08:28:25.212Z,83.70
2019-01-09T08:30:53.907Z,83.80
2019-01-09T08:33:22.253Z,80.60
2019-01-09T08:35:50.294Z,81.60
2019-01-09T08:38:18.586Z,82.10
2019-01-09T08:40:46.938Z,79.90
2019-01-09T08:43:15.295Z,80.40
2019-01-09T08:45:43.290Z,79.10
2019-01-09T08:48:12.470Z,79.40
2019-01-09T08:50:41.009Z,79.90
2019-01-09T08:53:08.948Z,81.50
2019-01-09T08:55:37.188Z,82.70
2019-01-09T08:58:05.509Z,82.10
2019-01-09T09:00:33.565Z,81.90
2019-01-09T09:03:02.287Z,81.90
2019-01-09T09:05:30.210Z,82.00
2019-01-09T09:08:11.528Z,82.00
2019-01-09T09:10:33.806Z,81.50
2019-01-09T09:13:01.769Z,81.90
2019-01-09T09:15:29.744Z,80.90
2019-01-09T09:17:57.718Z,80.80
2019-01-09T09:20:27.521Z,80.50
2019-01-09T09:22:55.544Z,80.50
2019-01-09T09:25:23.568Z,80.30
2019-01-09T09:27:51.526Z,79.10
2019-01-09T09:30:19.545Z,78.10
2019-01-09T09:32:47.486Z,77.50
2019-01-09T09:35:16.015Z,76.70
2019-01-09T09:37:44.602Z,77.00
2019-01-09T09:40:16.266Z,76.80
2019-01-09T09:42:44.591Z,75.10
2019-01-09T09:45:12.900Z,74.90
2019-01-09T09:47:40.882Z,75.80
2019-01-09T09:50:11.325Z,77.10
2019-01-09T09:52:39.305Z,73.90
2019-01-09T09:55:12.807Z,74.30
2019-01-09T09:57:37.741Z,75.20
2019-01-09T10:00:10.181Z,73.10
2019-01-09T10:02:38.223Z,74.80
2019-01-09T10:05:06.386Z,71.50
2019-01-09T10:07:34.624Z,71.20
2019-01-09T10:10:02.571Z,72.60
2019-01-09T10:12:32.367Z,72.30
2019-01-09T10:15:00.629Z,70.00
2019-01-09T10:17:28.573Z,71.30
2019-01-09T10:19:58.493Z,69.10
2019-01-09T10:22:26.501Z,70.90
2019-01-09T10:24:54.781Z,70.60
2019-01-09T10:27:23.021Z,70.90
2019-01-09T10:29:51.233Z,70.60
2019-01-09T10:32:19.244Z,70.20
2019-01-09T10:34:47.594Z,70.10
2019-01-09T10:37:15.560Z,70.00
2019-01-09T10:39:43.531Z,70.10
2019-01-09T10:42:11.786Z,70.80
2019-01-09T10:44:40.081Z,69.60
2019-01-09T10:47:08.339Z,70.10
2019-01-09T10:49:36.289Z,68.40
2019-01-09T10:52:04.461Z,68.70
2019-01-09T10:54:32.506Z,69.00
2019-01-09T10:57:01.565Z,70.20
2019-01-09T10:59:29.492Z,70.90
2019-01-09T11:01:57.779Z,70.70
2019-01-09T11:04:25.829Z,69.90
2019-01-09T11:06:54.045Z,69.80
2019-01-09T11:09:22.391Z,70.30
2019-01-09T11:11:50.823Z,69.80
2019-01-09T11:14:18.833Z,69.50
2019-01-09T11:16:46.988Z,69.80
2019-01-09T11:19:15.047Z,71.40
2019-01-09T11:21:43.257Z,72.50
2019-01-09T11:24:11.229Z,72.70
2019-01-09T11:26:39.261Z,70.30
2019-01-09T11:29:07.717Z,70.80
2019-01-09T11:31:36.065Z,71.50
2019-01-09T11:34:04.053Z,71.90
2019-01-09T11:36:32.055Z,74.50
2019-01-09T11:39:00.759Z,78.00
2019-01-09T11:41:29.374Z,78.60
2019-01-09T11:43:57.605Z,80.30
2019-01-09T11:46:25.960Z,80.00
2019-01-09T11:48:54.218Z,80.00
2019-01-09T11:51:22.171Z,81.50
2019-01-09T11:53:50.455Z,80.00
2019-01-09T11:56:19.422Z,80.20
2019-01-09T11:58:47.718Z,79.00
2019-01-09T12:01:15.686Z,79.20
2019-01-09T12:03:43.634Z,79.00
2019-01-09T12:06:11.997Z,75.00
2019-01-09T12:08:40.198Z,75.60
2019-01-09T12:11:09.030Z,77.20
2019-01-09T12:13:37.387Z,74.60
2019-01-09T12:16:08.095Z,73.70
2019-01-09T12:18:35.209Z,73.70
2019-01-09T12:21:03.169Z,71.20
2019-01-09T12:23:31.514Z,72.00
2019-01-09T12:25:59.514Z,70.90
2019-01-09T12:28:28.031Z,71.90
2019-01-09T12:30:56.050Z,71.60
2019-01-09T12:33:24.046Z,70.10
2019-01-09T12:35:52.369Z,69.70
2019-01-09T12:38:20.639Z,70.60
2019-01-09T12:40:48.925Z,70.70
2019-01-09T12:43:16.921Z,69.80
2019-01-09T12:45:44.885Z,70.90
2019-01-09T12:48:13.195Z,70.00
2019-01-09T12:50:41.322Z,69.10
2019-01-09T12:53:10.317Z,70.50
2019-01-09T12:55:38.283Z,70.90
2019-01-09T12:58:06.227Z,71.60
2019-01-09T13:00:34.222Z,71.90
2019-01-09T13:03:02.519Z,72.00
2019-01-09T13:05:30.598Z,73.50
2019-01-09T13:07:58.943Z,74.70
2019-01-09T13:10:26.912Z,75.40
2019-01-09T13:12:55.295Z,77.40
2019-01-09T13:15:23.574Z,80.20
2019-01-09T13:17:51.580Z,81.90
2019-01-09T13:20:19.540Z,81.40
2019-01-09T13:22:47.509Z,80.60
2019-01-09T13:25:15.762Z,81.20
2019-01-09T13:27:43.787Z,80.90
2019-01-09T13:30:23.065Z,79.80
2019-01-09T13:32:51.044Z,77.60
2019-01-09T13:35:19.118Z,77.50
2019-01-09T13:37:47.089Z,78.60
2019-01-09T13:40:17.500Z,79.00
2019-01-09T13:42:45.514Z,80.00
2019-01-09T13:47:45.633Z,76.30
2019-01-09T13:50:13.911Z,76.80
2019-01-09T13:52:41.922Z,76.80
2019-01-09T13:55:11.830Z,76.30
2019-01-09T13:57:39.805Z,76.30
2019-01-09T14:00:12.571Z,74.60
2019-01-09T14:02:40.542Z,71.70
2019-01-09T14:05:08.669Z,72.10
2019-01-09T14:07:36.653Z,71.10
2019-01-09T14:10:06.802Z,69.40
2019-01-09T14:12:34.928Z,66.30
2019-01-09T14:15:03.699Z,66.10
2019-01-09T14:17:31.749Z,68.00
2019-01-09T14:19:59.759Z,68.60
2019-01-09T14:22:32.947Z,73.60
2019-01-09T14:24:57.661Z,75.50
2019-01-09T14:27:25.674Z,78.70
2019-01-09T14:29:53.974Z,79.30
2019-01-09T14:32:21.963Z,80.70
2019-01-09T14:34:49.966Z,81.50
2019-01-09T14:37:18.289Z,81.90
2019-01-09T14:39:48.199Z,77.50
2019-01-09T14:42:16.355Z,78.00
2019-01-09T14:44:44.719Z,78.60
2019-01-09T14:47:13.115Z,78.20
2019-01-09T14:49:41.687Z,78.20
2019-01-09T14:52:10.472Z,79.60
2019-01-09T14:54:38.443Z,79.20
2019-01-09T14:57:06.439Z,78.10
2019-01-09T14:59:34.527Z,78.90
2019-01-09T15:02:02.905Z,78.00
2019-01-09T15:04:31.167Z,78.40
2019-01-09T15:06:59.373Z,78.70
2019-01-09T15:09:27.390Z,79.10
2019-01-09T15:11:55.733Z,79.70
2019-01-09T15:14:23.995Z,79.90
2019-01-09T15:16:52.174Z,81.20
2019-01-09T15:19:20.282Z,82.20
2019-01-09T15:21:48.252Z,83.10
2019-01-09T15:24:16.220Z,84.10
2019-01-09T15:26:44.926Z,84.20
2019-01-09T15:29:12.942Z,85.30
2019-01-09T15:31:41.055Z,87.90
2019-01-09T15:34:09.406Z,88.50
2019-01-09T15:36:37.451Z,88.50
2019-01-09T15:41:35.050Z,83.60
2019-01-09T15:44:03.048Z,82.20
2019-01-09T15:46:31.086Z,82.90
2019-01-09T15:49:00.521Z,83.50
2019-01-09T15:51:28.548Z,81.50
2019-01-09T15:53:56.621Z,82.30
2019-01-09T15:56:24.622Z,82.50
2019-01-09T15:58:52.821Z,83.00
2019-01-09T16:01:20.856Z,84.20
2019-01-09T16:03:49.113Z,83.60
2019-01-09T16:06:17.260Z,83.60
2019-01-09T16:08:45.891Z,85.20
2019-01-09T16:11:13.941Z,84.90
2019-01-09T16:13:42.213Z,84.50
2019-01-09T16:16:11.621Z,84.60
2019-01-09T16:18:41.179Z,84.70
2019-01-09T16:21:09.571Z,86.50
2019-01-09T16:23:37.875Z,86.30
2019-01-09T16:26:06.268Z,87.70
2019-01-09T16:28:34.559Z,87.90
2019-01-09T16:31:20.162Z,88.30
2019-01-09T16:36:17.604Z,87.90
2019-01-09T16:38:45.862Z,89.80
2019-01-09T16:41:14.086Z,90.00
2019-01-09T16:43:42.293Z,88.80
2019-01-09T16:46:11.371Z,89.50
2019-01-09T16:48:39.710Z,88.70
2019-01-09T16:51:09.336Z,87.10
2019-01-09T16:53:37.375Z,85.80
2019-01-09T16:56:05.751Z,86.30
2019-01-09T16:58:34.046Z,86.40
2019-01-09T17:01:02.046Z,87.40
2019-01-09T17:03:30.031Z,87.80
2019-01-09T17:05:58.156Z,87.70
2019-01-09T17:08:26.573Z,88.60
2019-01-09T17:10:54.526Z,88.80
2019-01-09T17:13:22.848Z,89.30
2019-01-09T17:15:51.157Z,90.00
2019-01-09T17:18:19.506Z,90.40
2019-01-09T17:20:48.691Z,90.30
2019-01-09T17:23:16.833Z,89.80
2019-01-09T17:28:14.545Z,89.00
2019-01-09T17:30:43.882Z,89.50
2019-01-09T17:33:12.333Z,88.90
2019-01-09T17:35:40.450Z,89.40
2019-01-09T17:38:08.478Z,89.60
2019-01-09T17:40:41.200Z,89.60
2019-01-09T17:43:07.368Z,89.70
2019-01-09T17:45:35.606Z,89.30
2019-01-09T17:48:05.692Z,88.90
2019-01-09T17:50:35.693Z,87.40
2019-01-09T17:53:03.763Z,88.60
2019-01-09T17:55:33.145Z,87.10
2019-01-09T17:58:02.467Z,87.30
2019-01-09T18:00:37.347Z,88.00
2019-01-09T18:03:06.604Z,87.80
2019-01-09T18:05:35.872Z,85.90
2019-01-09T18:08:10.494Z,86.80
2019-01-09T18:10:34.927Z,85.80
2019-01-09T18:13:04.129Z,85.50
2019-01-09T18:15:32.269Z,85.90
2019-01-09T18:18:01.547Z,86.20
2019-01-09T18:20:29.969Z,85.40
2019-01-09T18:22:58.059Z,85.20
2019-01-09T18:25:28.401Z,85.30
2019-01-09T18:27:56.585Z,85.80
2019-01-09T18:30:48.985Z,86.30
2019-01-09T18:33:33.144Z,87.60
2019-01-09T18:36:39.207Z,85.50
2019-01-09T18:40:32.677Z,86.20
2019-01-09T18:43:33.316Z,86.70
2019-01-09T18:47:26.485Z,86.90
2019-01-09T18:51:02.454Z,86.90
2019-01-09T18:53:48.883Z,86.90
2019-01-09T18:56:19.147Z,87.70
2019-01-09T18:58:48.283Z,88.50
2019-01-09T19:01:16.348Z,88.70
2019-01-09T19:03:44.618Z,88.30
2019-01-09T19:06:13.937Z,87.00
2019-01-09T19:08:41.983Z,87.30
2019-01-09T19:11:10.421Z,89.70
2019-01-09T19:13:38.498Z,88.60
2019-01-09T19:16:06.913Z,88.70
2019-01-09T19:18:36.053Z,88.40
2019-01-09T19:21:04.161Z,88.20
2019-01-09T19:23:32.745Z,87.80
2019-01-09T19:26:00.972Z,88.80
2019-01-09T19:28:29.410Z,88.80
2019-01-09T19:30:57.796Z,90.00
2019-01-09T19:33:25.872Z,88.70
2019-01-09T19:40:50.550Z,86.80
2019-01-09T19:43:18.524Z,87.70
2019-01-09T19:45:46.606Z,87.30
2019-01-09T19:48:14.779Z,87.20
2019-01-09T19:50:43.186Z,87.10
2019-01-09T19:53:11.284Z,86.90
2019-01-09T19:55:41.935Z,86.90
2019-01-09T19:58:11.123Z,87.20
2019-01-09T20:00:40.382Z,87.70
2019-01-09T20:03:08.781Z,87.80
2019-01-09T20:05:37.110Z,86.90
2019-01-09T20:08:09.000Z,87.50
2019-01-09T20:10:37.404Z,86.50
2019-01-09T20:13:06.789Z,86.40
2019-01-09T20:15:38.770Z,85.90
2019-01-09T20:18:07.962Z,86.30
2019-01-09T20:20:36.224Z,86.10
2019-01-09T20:23:04.738Z,85.90
2019-01-09T20:25:32.919Z,85.20
2019-01-09T20:28:01.449Z,84.70
2019-01-09T20:30:30.284Z,84.10
2019-01-09T20:32:58.488Z,84.50
2019-01-09T20:35:26.906Z,84.10
2019-01-09T20:37:55.209Z,85.00
2019-01-09T20:40:23.950Z,84.10
2019-01-09T20:42:53.863Z,83.50
2019-01-09T20:45:22.014Z,82.60
2019-01-09T20:47:51.949Z,82.80
2019-01-09T20:50:27.155Z,83.50
2019-01-09T20:52:55.311Z,83.10
2019-01-09T20:55:24.456Z,79.70
2019-01-09T20:57:54.520Z,79.10
2019-01-09T21:00:31.726Z,79.60
2019-01-09T21:03:06.463Z,78.30
2019-01-09T21:05:41.688Z,79.00
2019-01-09T21:08:11.884Z,79.30
2019-01-09T21:10:42.091Z,79.90
2019-01-09T21:13:12.148Z,79.20
2019-01-09T21:15:40.268Z,77.80
2019-01-09T21:18:08.388Z,78.00
2019-01-09T21:20:36.507Z,77.70
2019-01-09T21:23:04.914Z,79.10
2019-01-09T21:25:34.339Z,78.10
2019-01-09T21:28:05.515Z,77.40
2019-01-09T21:30:33.906Z,78.30
2019-01-09T21:33:01.985Z,78.40
2019-01-09T21:35:30.546Z,78.90
2019-01-09T21:37:59.014Z,76.60
2019-01-09T21:40:28.663Z,77.30
2019-01-09T21:45:24.856Z,76.10
2019-01-09T21:47:53.762Z,75.20
2019-01-09T21:50:22.507Z,74.30
2019-01-09T21:52:50.613Z,73.80
2019-01-09T21:55:18.859Z,74.60
2019-01-09T21:57:48.379Z,73.60
2019-01-09T22:00:22.865Z,74.40
2019-01-09T22:02:51.099Z,73.80
2019-01-09T22:05:20.429Z,74.40
2019-01-09T22:07:48.618Z,76.70
2019-01-09T22:10:23.755Z,79.40
2019-01-09T22:12:52.151Z,75.30
2019-01-09T22:15:20.811Z,76.20
2019-01-09T22:17:49.029Z,76.40
2019-01-09T22:20:17.313Z,76.70
2019-01-09T22:22:45.446Z,77.40
2019-01-09T22:25:14.124Z,78.40
2019-01-09T22:30:23.043Z,80.60
2019-01-09T22:32:51.325Z,82.00
2019-01-09T22:35:19.437Z,83.20
2019-01-09T22:37:48.560Z,83.60
2019-01-09T22:40:18.230Z,84.50
2019-01-09T22:45:16.836Z,85.80
2019-01-09T22:47:45.887Z,86.40
2019-01-09T22:50:17.393Z,86.70
2019-01-09T22:52:45.934Z,87.00
2019-01-09T22:55:13.986Z,86.30
2019-01-09T22:57:42.024Z,86.90
2019-01-09T23:00:52.585Z,86.80
2019-01-09T23:03:20.907Z,87.30
2019-01-09T23:05:50.337Z,87.40
2019-01-09T23:08:18.419Z,87.50
2019-01-09T23:10:54.511Z,87.70
2019-01-09T23:13:19.042Z,87.50
2019-01-09T23:15:47.532Z,86.10
2019-01-09T23:18:15.816Z,86.60
2019-01-09T23:20:44.059Z,87.10
2019-01-09T23:23:12.346Z,87.40
2019-01-09T23:25:40.982Z,87.80
2019-01-09T23:28:09.044Z,88.10
2019-01-09T23:30:39.412Z,89.10
2019-01-09T23:33:07.841Z,89.30
2019-01-09T23:35:35.819Z,88.10
2019-01-09T23:38:03.966Z,88.60
2019-01-09T23:40:32.080Z,87.80
2019-01-09T23:43:01.747Z,86.40
2019-01-09T23:45:30.002Z,87.40
2019-01-09T23:47:58.119Z,87.40
2019-01-09T23:50:26.466Z,87.40
2019-01-09T23:52:54.524Z,87.90
2019-01-09T23:55:24.797Z,87.40
2019-01-09T23:57:53.074Z,87.90
